Luena, Luena Airport (FNUE)

NameLuena Airport
CityLuena
CountryAngola
ICAOFNUE
IATALUO
Altitude1329 m
CoordinatesGoogle Map
Live Air TrafficLiveATC.net
METARFNUE 201600Z 12004KT 9999 FEW040 27/16 Q1018
2019-05-20 16:00:00 Wind: East-Southeast (120°) 2.06 m/s - Visibility: > 10000 m - Temperature: 27 °C - Dew point: 16 °C - Humidity: 51% - Pressure: 1018 hPa
Statistics

The table below shows the detailed information of all flights to/from Luena, Luena Airport (FNUE).